Time;durP1;ratioP1;P1;durP2;ratioP2;P2;SDS_P1;SDS_P2;PMS_P1;PMS_P2;Temp;Humidity;BMP_temperature;BMP_pressure;BME280_temperature;BME280_humidity;BME280_pressure;Samples;Min_cycle;Max_cycle;Signal;HPM_P1;HPM_P2
2022/09/01 00:00:36;;;;;;;;;;;;;;;12.51;69.00;99322.61;1609528;88;21175;-64
2022/09/01 00:03:02;;;;;;;;;;;;;;;12.48;69.01;99324.31;1608965;88;21144;-67
2022/09/01 00:05:31;;;;;;;;;;;;;;;12.46;69.02;99320.17;1607537;88;20094;-66
2022/09/01 00:07:58;;;;;;;;;;;;;;;12.42;69.06;99320.20;1608763;88;20114;-66
2022/09/01 00:10:24;;;;;;;;;;;;;;;12.39;69.19;99318.24;1610119;88;20098;-65
2022/09/01 00:12:50;;;;;;;;;;;;;;;12.37;69.32;99321.61;1607255;88;21189;-67
2022/09/01 00:15:17;;;;;;;;;;;;;;;12.37;69.48;99320.27;1607490;88;20099;-67
2022/09/01 00:17:45;;;;;;;;;;;;;;;12.35;69.38;99320.97;1609285;88;20107;-67
2022/09/01 00:20:11;;;;;;;;;;;;;;;12.32;69.46;99321.84;1609010;88;20153;-65
2022/09/01 00:22:38;;;;;;;;;;;;;;;12.28;69.52;99320.03;1607093;88;20186;-65
2022/09/01 00:25:05;;;;;;;;;;;;;;;12.26;69.63;99318.06;1608422;88;21191;-67
2022/09/01 00:27:32;;;;;;;;;;;;;;;12.25;69.78;99323.06;1584814;89;20134;-67
2022/09/01 00:29:59;;;;;;;;;;;;;;;12.22;69.88;99324.80;1580315;89;20417;-66
2022/09/01 00:32:26;;;;;;;;;;;;;;;12.21;69.93;99321.80;1579498;89;20143;-67
2022/09/01 00:34:52;;;;;;;;;;;;;;;12.22;69.84;99324.80;1582707;89;20171;-67
2022/09/01 00:37:19;;;;;;;;;;;;;;;12.19;69.74;99322.49;1582784;89;20578;-67
2022/09/01 00:39:45;;;;;;;;;;;;;;;12.18;69.66;99328.83;1581209;89;20091;-65
2022/09/01 00:42:12;;;;;;;;;;;;;;;12.15;69.60;99331.85;1580086;89;20215;-65
2022/09/01 00:44:38;;;;;;;;;;;;;;;12.11;69.83;99328.41;1583977;89;20090;-64
2022/09/01 00:47:05;;;;;;;;;;;;;;;12.05;69.98;99331.30;1580975;89;20453;-65
2022/09/01 00:49:41;;;;;;;;;;;;;;;11.99;70.18;99336.02;1583333;89;21186;-66
2022/09/01 00:52:13;;;;;;;;;;;;;;;11.96;70.42;99335.58;1579808;89;20179;-66
2022/09/01 00:54:44;;;;;;;;;;;;;;;11.94;70.66;99335.74;1582062;89;20450;-66
2022/09/01 00:57:11;;;;;;;;;;;;;;;11.95;70.84;99342.74;1580331;89;20111;-63
2022/09/01 00:59:41;;;;;;;;;;;;;;;11.95;70.92;99345.41;1582037;89;20186;-65
2022/09/01 01:02:09;;;;;;;;;;;;;;;11.95;71.05;99341.41;1582310;89;21811;-66
2022/09/01 01:04:36;;;;;;;;;;;;;;;11.96;71.13;99341.75;1581125;89;20111;-66
2022/09/01 01:07:03;;;;;;;;;;;;;;;11.95;71.11;99345.41;1583028;89;20171;-65
2022/09/01 01:09:31;;;;;;;;;;;;;;;11.92;71.15;99347.09;1582251;89;20174;-67
2022/09/01 01:11:59;;;;;;;;;;;;;;;11.93;71.13;99343.94;1580794;89;20132;-66
2022/09/01 01:14:28;;;;;;;;;;;;;;;11.87;70.78;99344.16;1581707;89;21236;-67
2022/09/01 01:16:54;;;;;;;;;;;;;;;11.81;70.74;99334.73;1582077;89;20142;-65
2022/09/01 01:23:22;;;;;;;;;;;;;;;11.72;70.50;99336.64;1577290;89;20489;-67
2022/09/01 01:25:06;;;;;;;;;;;;;;;11.64;70.46;99340.68;1573591;89;20123;-66
2022/09/01 01:27:33;;;;;;;;;;;;;;;11.58;70.58;99330.73;1581560;89;21182;-67
2022/09/01 01:30:03;;;;;;;;;;;;;;;11.55;70.83;99332.45;1579967;89;20131;-66
2022/09/01 01:32:31;;;;;;;;;;;;;;;11.54;70.98;99332.95;1583001;89;20139;-66
2022/09/01 01:35:02;;;;;;;;;;;;;;;11.54;71.18;99331.62;1581241;89;20136;-67
2022/09/01 01:37:26;;;;;;;;;;;;;;;11.55;71.30;99327.12;1589687;90;20124;-66
2022/09/01 01:39:53;;;;;;;;;;;;;;;11.55;71.33;99330.59;1582986;89;21777;-67
2022/09/01 01:42:19;;;;;;;;;;;;;;;11.55;71.45;99323.13;1582310;89;20124;-67
2022/09/01 01:44:46;;;;;;;;;;;;;;;11.53;71.67;99327.28;1581729;89;20132;-67
2022/09/01 01:47:13;;;;;;;;;;;;;;;11.54;71.87;99321.45;1582930;89;20191;-67
2022/09/01 01:49:42;;;;;;;;;;;;;;;11.55;72.01;99321.27;1584938;89;20448;-67
2022/09/01 01:52:13;;;;;;;;;;;;;;;11.58;72.04;99321.41;1577456;89;21259;-67
2022/09/01 01:54:40;;;;;;;;;;;;;;;11.58;71.90;99325.41;1580643;89;20099;-68
2022/09/01 01:57:07;;;;;;;;;;;;;;;11.55;71.92;99325.80;1578401;89;20165;-68
2022/09/01 01:59:33;;;;;;;;;;;;;;;11.52;71.99;99320.81;1580660;89;20128;-67
2022/09/01 02:02:02;;;;;;;;;;;;;;;11.49;72.11;99318.51;1582016;89;20411;-67
2022/09/01 02:04:32;;;;;;;;;;;;;;;11.49;72.18;99321.17;1582353;89;21281;-68
2022/09/01 02:06:57;;;;;;;;;;;;;;;11.45;72.17;99318.03;1582991;89;20103;-67
2022/09/01 02:09:24;;;;;;;;;;;;;;;11.39;72.16;99314.77;1581289;89;20151;-67
2022/09/01 02:11:56;;;;;;;;;;;;;;;11.38;72.26;99321.59;1580979;89;20210;-68
2022/09/01 02:14:20;;;;;;;;;;;;;;;11.34;72.23;99325.63;1582446;89;20099;-68
2022/09/01 02:16:47;;;;;;;;;;;;;;;11.33;72.04;99326.62;1581336;89;21259;-67
2022/09/01 02:19:13;;;;;;;;;;;;;;;11.28;71.94;99324.51;1583366;89;20105;-67
2022/09/01 02:21:43;;;;;;;;;;;;;;;11.24;71.76;99319.20;1582387;89;20132;-68
2022/09/01 02:24:09;;;;;;;;;;;;;;;11.18;71.62;99323.39;1581919;89;20175;-68
2022/09/01 02:26:41;;;;;;;;;;;;;;;11.13;71.48;99325.77;1586427;88;20201;-67
2022/09/01 02:29:16;;;;;;;;;;;;;;;11.10;71.41;99317.33;1610007;88;21165;-68
2022/09/01 02:31:40;;;;;;;;;;;;;;;11.04;71.33;99328.17;1606986;88;20139;-65
2022/09/01 02:34:12;;;;;;;;;;;;;;;10.98;71.29;99323.55;1609644;88;20186;-65
2022/09/01 02:36:43;;;;;;;;;;;;;;;10.93;71.39;99324.58;1608203;88;20114;-68
2022/09/01 02:39:10;;;;;;;;;;;;;;;10.87;71.35;99327.13;1609017;88;20480;-67
2022/09/01 02:41:38;;;;;;;;;;;;;;;10.77;71.76;99327.83;1610588;88;21185;-67
2022/09/01 02:44:10;;;;;;;;;;;;;;;10.67;72.47;99328.05;1606705;88;20095;-68
2022/09/01 02:46:33;;;;;;;;;;;;;;;10.66;73.08;99326.91;1608061;88;20471;-67
2022/09/01 02:49:00;;;;;;;;;;;;;;;10.65;73.41;99331.89;1610046;88;20151;-69
2022/09/01 02:51:27;;;;;;;;;;;;;;;10.62;73.90;99333.08;1607773;88;20135;-66
2022/09/01 02:53:53;;;;;;;;;;;;;;;10.62;74.30;99330.91;1608390;88;21174;-65
2022/09/01 02:56:21;;;;;;;;;;;;;;;10.64;74.61;99335.58;1607147;88;20107;-66
2022/09/01 02:58:48;;;;;;;;;;;;;;;10.67;75.04;99328.55;1608720;88;20125;-66
2022/09/01 03:01:24;;;;;;;;;;;;;;;10.72;75.51;99330.19;1605822;88;20448;-66
2022/09/01 03:03:53;;;;;;;;;;;;;;;10.73;75.80;99325.20;1606973;88;20239;-66
2022/09/01 03:06:22;;;;;;;;;;;;;;;10.80;76.09;99325.66;1608691;88;21107;-66
2022/09/01 03:08:51;;;;;;;;;;;;;;;10.86;76.11;99330.29;1609163;88;20123;-66
2022/09/01 03:11:19;;;;;;;;;;;;;;;10.89;76.04;99328.61;1605686;88;20094;-65
2022/09/01 03:13:45;;;;;;;;;;;;;;;10.93;76.05;99323.75;1605969;88;20180;-63
2022/09/01 03:16:12;;;;;;;;;;;;;;;11.00;76.10;99324.72;1609146;88;20194;-64
2022/09/01 03:18:39;;;;;;;;;;;;;;;11.05;76.07;99331.14;1607494;88;22059;-65
2022/09/01 03:21:07;;;;;;;;;;;;;;;11.10;75.98;99324.81;1609357;88;20441;-66
2022/09/01 03:23:34;;;;;;;;;;;;;;;11.13;75.86;99326.30;1609240;88;20107;-65
2022/09/01 03:26:00;;;;;;;;;;;;;;;11.18;75.83;99329.25;1606363;88;20114;-67
2022/09/01 03:28:27;;;;;;;;;;;;;;;11.22;75.80;99327.88;1588685;89;20119;-67
2022/09/01 03:30:55;;;;;;;;;;;;;;;11.27;75.76;99324.67;1582852;89;21174;-65
2022/09/01 03:33:22;;;;;;;;;;;;;;;11.34;75.70;99329.63;1582657;89;20128;-65
2022/09/01 03:35:48;;;;;;;;;;;;;;;11.35;75.41;99328.60;1580289;89;20111;-66
2022/09/01 03:38:23;;;;;;;;;;;;;;;11.35;75.09;99335.26;1581181;89;20170;-66
2022/09/01 03:40:51;;;;;;;;;;;;;;;11.32;74.62;99335.11;1582571;89;20115;-67
2022/09/01 03:43:22;;;;;;;;;;;;;;;11.29;74.16;99327.48;1583238;89;21196;-67
2022/09/01 03:45:47;;;;;;;;;;;;;;;11.31;73.95;99333.97;1579420;89;20143;-68
2022/09/01 03:48:15;;;;;;;;;;;;;;;11.38;73.65;99334.41;1584962;89;20133;-68
2022/09/01 03:50:46;;;;;;;;;;;;;;;11.46;73.35;99330.84;1583096;89;20481;-67
2022/09/01 03:53:14;;;;;;;;;;;;;;;11.54;72.97;99333.45;1582010;89;20132;-64
2022/09/01 03:55:43;;;;;;;;;;;;;;;11.61;72.53;99333.05;1581467;89;21161;-66
2022/09/01 03:58:12;;;;;;;;;;;;;;;11.67;72.33;99332.33;1580357;89;20111;-66
2022/09/01 04:00:42;;;;;;;;;;;;;;;11.79;72.16;99332.23;1569217;90;20440;-67
2022/09/01 04:03:11;;;;;;;;;;;;;;;11.94;71.96;99329.08;1582048;89;20137;-66
2022/09/01 04:05:43;;;;;;;;;;;;;;;12.16;71.66;99331.35;1581679;89;20124;-66
2022/09/01 04:08:11;;;;;;;;;;;;;;;12.41;71.24;99332.72;1580874;89;21282;-67
2022/09/01 04:10:48;;;;;;;;;;;;;;;12.69;70.53;99331.05;1583849;89;20139;-66
2022/09/01 04:13:15;;;;;;;;;;;;;;;13.03;69.94;99329.06;1582737;89;20107;-66
2022/09/01 04:15:42;;;;;;;;;;;;;;;13.49;69.04;99325.52;1580560;89;20419;-67
2022/09/01 04:18:11;;;;;;;;;;;;;;;14.02;67.96;99322.75;1581991;89;20123;-66
2022/09/01 04:20:47;;;;;;;;;;;;;;;14.66;66.46;99322.80;1583255;89;21179;-66
2022/09/01 04:23:25;;;;;;;;;;;;;;;15.23;64.64;99314.30;1580724;89;20107;-66
2022/09/01 04:26:07;;;;;;;;;;;;;;;15.56;63.04;99313.55;1581471;89;20184;-67
2022/09/01 04:28:33;;;;;;;;;;;;;;;15.57;62.12;99316.02;1598393;88;20174;-68
2022/09/01 04:31:04;;;;;;;;;;;;;;;15.50;61.53;99321.06;1609829;88;20425;-67
2022/09/01 04:33:36;;;;;;;;;;;;;;;15.41;61.24;99317.21;1578084;89;21155;-66
2022/09/01 04:35:59;;;;;;;;;;;;;;;15.33;61.06;99317.41;1608945;88;20100;-66
2022/09/01 04:38:28;;;;;;;;;;;;;;;15.27;61.05;99321.43;1607051;88;20127;-66
2022/09/01 04:40:56;;;;;;;;;;;;;;;15.18;61.04;99316.77;1607891;88;20098;-66
2022/09/01 04:43:23;;;;;;;;;;;;;;;15.08;61.13;99316.85;1608478;88;20518;-67
2022/09/01 04:45:50;;;;;;;;;;;;;;;15.04;61.35;99312.94;1609002;88;21113;-66
2022/09/01 04:48:19;;;;;;;;;;;;;;;15.01;61.55;99321.38;1610556;88;20111;-67
2022/09/01 04:50:48;;;;;;;;;;;;;;;15.01;61.67;99313.34;1608291;88;20437;-67
2022/09/01 04:53:19;;;;;;;;;;;;;;;15.08;61.88;99316.34;1609929;88;20092;-68
2022/09/01 04:55:47;;;;;;;;;;;;;;;15.28;61.98;99313.69;1606958;88;20166;-67
2022/09/01 04:58:19;;;;;;;;;;;;;;;15.55;61.68;99318.08;1607844;88;21179;-66
2022/09/01 05:00:47;;;;;;;;;;;;;;;15.96;61.29;99316.50;1608388;88;20139;-66
2022/09/01 05:03:20;;;;;;;;;;;;;;;16.42;60.34;99311.05;1609391;88;20110;-67
2022/09/01 05:06:19;;;;;;;;;;;;;;;16.78;59.48;99307.83;1606859;88;20130;-66
2022/09/01 05:08:51;;;;;;;;;;;;;;;17.08;58.93;99307.55;1605924;88;20094;-66
2022/09/01 05:11:22;;;;;;;;;;;;;;;17.41;58.80;99309.52;1604438;88;21186;-66
2022/09/01 05:13:49;;;;;;;;;;;;;;;17.82;57.94;99311.69;1609174;88;20115;-66
2022/09/01 05:16:20;;;;;;;;;;;;;;;18.10;57.31;99310.69;1607105;88;20110;-67
2022/09/01 05:18:48;;;;;;;;;;;;;;;18.38;56.54;99311.55;1582399;89;20167;-66
2022/09/01 05:21:18;;;;;;;;;;;;;;;18.61;55.43;99309.55;1607883;88;20487;-68
2022/09/01 05:23:49;;;;;;;;;;;;;;;18.73;55.14;99309.07;1608356;88;21225;-67
2022/09/01 05:26:18;;;;;;;;;;;;;;;18.81;54.63;99307.42;1605612;88;20122;-68
2022/09/01 05:28:47;;;;;;;;;;;;;;;18.60;54.36;99319.49;1590099;88;20107;-66
2022/09/01 05:31:18;;;;;;;;;;;;;;;18.55;55.08;99314.48;1581172;89;20648;-69
2022/09/01 05:33:44;;;;;;;;;;;;;;;19.00;54.80;99319.81;1581864;89;20192;-66
2022/09/01 05:36:12;;;;;;;;;;;;;;;19.81;53.66;99315.19;1579768;89;21184;-66
2022/09/01 05:38:41;;;;;;;;;;;;;;;20.61;51.64;99319.73;1580353;89;20123;-65
2022/09/01 05:41:19;;;;;;;;;;;;;;;21.46;49.30;99318.40;1583703;89;20447;-65
2022/09/01 05:43:47;;;;;;;;;;;;;;;22.12;46.29;99316.26;1582858;89;20154;-66
2022/09/01 05:46:16;;;;;;;;;;;;;;;22.15;44.94;99307.64;1580677;89;20161;-67
2022/09/01 05:48:48;;;;;;;;;;;;;;;22.09;44.64;99312.16;1581060;89;21816;-67
2022/09/01 05:51:18;;;;;;;;;;;;;;;22.16;44.10;99311.17;1583390;89;20228;-67
2022/09/01 05:54:03;;;;;;;;;;;;;;;22.28;43.41;99315.95;1576757;89;20308;-67
2022/09/01 05:56:32;;;;;;;;;;;;;;;22.64;42.39;99311.31;1581352;89;20409;-67
2022/09/01 05:59:01;;;;;;;;;;;;;;;23.16;41.35;99313.81;1582396;89;20127;-67
2022/09/01 06:01:39;;;;;;;;;;;;;;;23.97;39.90;99310.48;1580216;90;21332;-67
2022/09/01 06:04:07;;;;;;;;;;;;;;;24.80;38.12;99302.02;1580118;89;20140;-67
2022/09/01 06:06:36;;;;;;;;;;;;;;;25.62;36.71;99313.66;1582106;89;20111;-67
2022/09/01 06:09:05;;;;;;;;;;;;;;;26.24;35.62;99309.81;1580457;89;20111;-66
2022/09/01 06:11:32;;;;;;;;;;;;;;;26.68;34.55;99302.58;1581260;89;20122;-67
2022/09/01 06:13:59;;;;;;;;;;;;;;;27.03;33.72;99306.28;1581241;89;22175;-67
2022/09/01 06:16:27;;;;;;;;;;;;;;;28.07;32.27;99303.91;1582152;89;20455;-70
2022/09/01 06:18:56;;;;;;;;;;;;;;;29.26;30.45;99288.25;1579579;89;20460;-68
2022/09/01 06:21:23;;;;;;;;;;;;;;;30.31;28.52;99291.70;1579750;89;20433;-68
2022/09/01 06:23:52;;;;;;;;;;;;;;;30.85;27.75;99293.63;1580360;89;20102;-69
2022/09/01 06:26:27;;;;;;;;;;;;;;;31.11;27.26;99295.28;1581019;89;21813;-66
2022/09/01 06:28:55;;;;;;;;;;;;;;;31.16;27.36;99293.80;1583418;88;20168;-67
2022/09/01 06:31:24;;;;;;;;;;;;;;;31.97;26.56;99288.54;1582681;89;20087;-67
2022/09/01 06:33:52;;;;;;;;;;;;;;;32.99;24.97;99281.84;1579764;89;20115;-66
2022/09/01 06:36:22;;;;;;;;;;;;;;;33.47;24.13;99283.13;1582150;89;20159;-66
2022/09/01 06:38:50;;;;;;;;;;;;;;;33.71;23.54;99279.33;1580670;89;21836;-69
2022/09/01 06:41:18;;;;;;;;;;;;;;;34.31;22.72;99275.62;1582986;89;20730;-68
2022/09/01 06:43:47;;;;;;;;;;;;;;;35.07;21.68;99282.70;1581405;89;20103;-68
2022/09/01 06:46:14;;;;;;;;;;;;;;;35.66;20.91;99285.34;1583047;89;20114;-68
2022/09/01 06:48:45;;;;;;;;;;;;;;;35.83;20.51;99287.92;1579703;89;20432;-68
2022/09/01 06:51:13;;;;;;;;;;;;;;;36.12;20.14;99288.38;1578560;89;21385;-70
2022/09/01 06:53:38;;;;;;;;;;;;;;;36.33;19.68;99284.95;1582213;89;20685;-69
2022/09/01 06:56:07;;;;;;;;;;;;;;;36.45;19.50;99281.61;1580726;89;20425;-70
2022/09/01 06:58:34;;;;;;;;;;;;;;;35.89;19.78;99292.11;1580546;89;20129;-71
2022/09/01 07:01:07;;;;;;;;;;;;;;;35.26;20.54;99298.26;1578492;89;20210;-70
2022/09/01 07:03:33;;;;;;;;;;;;;;;34.74;20.95;99296.38;1581990;89;21446;-69
2022/09/01 07:06:04;;;;;;;;;;;;;;;34.19;21.54;99304.46;1578423;89;20186;-70
2022/09/01 07:08:53;;;;;;;;;;;;;;;33.96;21.75;99306.05;1579999;89;20111;-71
2022/09/01 07:11:31;;;;;;;;;;;;;;;33.28;22.34;99308.82;1581649;89;20139;-69
2022/09/01 07:14:02;;;;;;;;;;;;;;;33.07;22.76;99307.26;1580665;89;20111;-71
2022/09/01 07:16:33;;;;;;;;;;;;;;;33.37;22.62;99311.03;1581439;89;21146;-68
2022/09/01 07:19:00;;;;;;;;;;;;;;;34.04;21.77;99309.36;1582340;89;20174;-66
2022/09/01 07:21:30;;;;;;;;;;;;;;;34.81;21.05;99311.04;1579024;89;20115;-71
2022/09/01 07:24:00;;;;;;;;;;;;;;;35.59;20.18;99309.39;1580878;89;20147;-69
2022/09/01 07:26:28;;;;;;;;;;;;;;;36.23;19.34;99304.79;1580347;89;20448;-68
2022/09/01 07:28:56;;;;;;;;;;;;;;;36.71;18.96;99299.30;1588463;88;21188;-69
2022/09/01 07:31:28;;;;;;;;;;;;;;;37.00;18.74;99305.20;1603377;88;20123;-66
2022/09/01 07:33:57;;;;;;;;;;;;;;;37.19;18.41;99304.02;1605433;88;20452;-69
2022/09/01 07:36:24;;;;;;;;;;;;;;;37.51;18.11;99301.65;1608020;88;20115;-60
2022/09/01 07:38:52;;;;;;;;;;;;;;;37.76;18.12;99300.14;1609025;88;20166;-58
2022/09/01 07:41:20;;;;;;;;;;;;;;;38.10;17.52;99295.36;1607980;88;21229;-61
2022/09/01 07:44:07;;;;;;;;;;;;;;;38.56;16.84;99297.37;1608583;88;20180;-67
2022/09/01 07:46:36;;;;;;;;;;;;;;;38.90;16.74;99299.41;1594643;88;20151;-68
2022/09/01 07:49:03;;;;;;;;;;;;;;;39.18;16.11;99298.45;1608257;88;20178;-68
2022/09/01 07:51:30;;;;;;;;;;;;;;;39.34;15.85;99296.47;1608284;88;20130;-67
2022/09/01 07:53:57;;;;;;;;;;;;;;;39.61;15.66;99292.64;1606644;88;22114;-67
2022/09/01 07:56:24;;;;;;;;;;;;;;;39.96;15.19;99297.55;1610492;88;20472;-69
2022/09/01 07:58:51;;;;;;;;;;;;;;;40.34;14.90;99286.91;1608990;88;20185;-65
2022/09/01 08:01:20;;;;;;;;;;;;;;;40.86;14.58;99286.17;1609319;88;20221;-68
2022/09/01 08:03:50;;;;;;;;;;;;;;;41.17;14.28;99292.05;1604861;88;20631;-67
2022/09/01 08:06:21;;;;;;;;;;;;;;;41.52;14.04;99287.52;1606710;88;21162;-66
2022/09/01 08:08:49;;;;;;;;;;;;;;;41.85;13.52;99283.34;1610078;88;20173;-68
2022/09/01 08:11:18;;;;;;;;;;;;;;;42.16;13.27;99282.11;1608175;88;20094;-68
2022/09/01 08:13:44;;;;;;;;;;;;;;;42.44;13.24;99277.58;1607418;88;20168;-66
2022/09/01 08:16:11;;;;;;;;;;;;;;;42.57;12.88;99271.11;1607995;88;20155;-67
2022/09/01 08:18:40;;;;;;;;;;;;;;;42.94;12.75;99264.77;1607848;88;21173;-65
2022/09/01 08:21:11;;;;;;;;;;;;;;;43.28;12.48;99263.17;1610261;88;20137;-65
2022/09/01 08:23:43;;;;;;;;;;;;;;;43.34;12.43;99271.41;1602494;88;20226;-67
2022/09/01 08:26:13;;;;;;;;;;;;;;;43.68;12.17;99266.33;1607116;88;20717;-66
2022/09/01 08:28:40;;;;;;;;;;;;;;;44.23;11.70;99264.08;1608612;88;20128;-65
2022/09/01 08:31:09;;;;;;;;;;;;;;;44.37;11.14;99262.69;1601131;88;21204;-66
2022/09/01 08:33:37;;;;;;;;;;;;;;;44.34;11.28;99260.09;1571075;90;20130;-66
2022/09/01 08:36:05;;;;;;;;;;;;;;;44.72;11.27;99260.67;1598829;88;20161;-69
2022/09/01 08:38:33;;;;;;;;;;;;;;;45.13;11.02;99263.83;1569971;90;20109;-66
2022/09/01 08:41:02;;;;;;;;;;;;;;;45.19;10.70;99257.97;1597359;88;20095;-66
2022/09/01 08:43:46;;;;;;;;;;;;;;;45.13;10.92;99264.42;1597532;88;21837;-69
2022/09/01 08:46:34;;;;;;;;;;;;;;;45.23;10.82;99257.97;1599630;88;20114;-66
2022/09/01 08:49:08;;;;;;;;;;;;;;;45.34;10.95;99258.76;1595215;88;20107;-69
2022/09/01 08:51:57;;;;;;;;;;;;;;;45.81;10.57;99262.95;1593957;88;20131;-66
2022/09/01 08:54:43;;;;;;;;;;;;;;;45.69;10.48;99267.63;1596786;88;20114;-65
2022/09/01 08:57:26;;;;;;;;;;;;;;;43.96;11.12;99270.64;1596618;88;21259;-69
2022/09/01 09:00:13;;;;;;;;;;;;;;;41.99;12.31;99269.53;1597954;88;20178;-69
2022/09/01 09:03:04;;;;;;;;;;;;;;;41.71;12.71;99263.08;1596079;88;20128;-66
2022/09/01 09:06:03;;;;;;;;;;;;;;;41.63;12.74;99262.75;1576597;88;20120;-65
2022/09/01 09:08:50;;;;;;;;;;;;;;;41.85;12.61;99253.43;1597314;88;20099;-66
2022/09/01 09:11:40;;;;;;;;;;;;;;;41.90;12.47;99254.28;1596767;88;21150;-65
2022/09/01 09:14:37;;;;;;;;;;;;;;;40.41;13.34;99258.37;1596757;88;38354;-65
2022/09/01 09:17:04;;;;;;;;;;;;;;;38.76;14.39;99252.42;1596903;88;20213;-65
2022/09/01 09:19:35;;;;;;;;;;;;;;;38.13;14.87;99251.61;1599506;88;20099;-66
2022/09/01 09:22:04;;;;;;;;;;;;;;;38.84;14.62;99244.47;1569087;90;20153;-67
2022/09/01 09:24:46;;;;;;;;;;;;;;;40.13;13.89;99243.97;1597584;88;21133;-66
2022/09/01 09:27:32;;;;;;;;;;;;;;;40.30;13.54;99245.66;1597892;88;20107;-66
2022/09/01 09:30:04;;;;;;;;;;;;;;;39.20;14.17;99246.08;1578720;88;20107;-69
2022/09/01 09:33:02;;;;;;;;;;;;;;;39.38;14.52;99245.86;1578995;89;20428;-64
2022/09/01 09:35:35;;;;;;;;;;;;;;;40.87;13.74;99241.78;1581837;89;20189;-67
2022/09/01 09:38:31;;;;;;;;;;;;;;;40.78;13.35;99244.64;1584646;89;21714;-66
2022/09/01 09:41:06;;;;;;;;;;;;;;;39.42;14.13;99243.97;1581418;89;20459;-65
2022/09/01 09:43:36;;;;;;;;;;;;;;;37.26;15.44;99245.20;1580492;89;20164;-65
2022/09/01 09:46:26;;;;;;;;;;;;;;;35.61;16.78;99255.13;1581760;89;20107;-66
2022/09/01 09:49:12;;;;;;;;;;;;;;;34.18;17.99;99258.70;1580249;89;20144;-67
2022/09/01 09:51:40;;;;;;;;;;;;;;;32.81;19.18;99260.91;1583070;89;21270;-67
2022/09/01 09:54:18;;;;;;;;;;;;;;;32.33;20.06;99263.64;1582501;89;20193;-65
2022/09/01 09:56:45;;;;;;;;;;;;;;;33.23;19.57;99262.13;1583352;89;20111;-67
2022/09/01 09:59:29;;;;;;;;;;;;;;;34.31;18.73;99252.15;1581633;89;20095;-67
2022/09/01 10:02:01;;;;;;;;;;;;;;;34.31;18.57;99260.44;1582213;89;20128;-66
2022/09/01 10:04:36;;;;;;;;;;;;;;;33.44;19.33;99264.47;1581068;89;21180;-67
2022/09/01 10:07:22;;;;;;;;;;;;;;;33.20;19.80;99262.77;1583043;89;20158;-66
2022/09/01 10:09:48;;;;;;;;;;;;;;;34.44;19.12;99263.54;1576487;89;20389;-66
2022/09/01 10:12:16;;;;;;;;;;;;;;;35.77;18.03;99254.13;1583583;89;20095;-67
2022/09/01 10:14:52;;;;;;;;;;;;;;;35.88;17.71;99262.80;1581512;89;20159;-68
2022/09/01 10:17:22;;;;;;;;;;;;;;;36.30;17.46;99257.38;1584614;89;21128;-66
2022/09/01 10:19:53;;;;;;;;;;;;;;;36.28;17.11;99262.45;1578901;89;20429;-66
2022/09/01 10:22:19;;;;;;;;;;;;;;;35.50;17.84;99267.16;1582007;89;20166;-67
2022/09/01 10:24:46;;;;;;;;;;;;;;;34.68;18.69;99274.80;1579743;89;20129;-66
2022/09/01 10:27:18;;;;;;;;;;;;;;;33.78;19.34;99263.08;1582765;89;20246;-68
2022/09/01 10:29:47;;;;;;;;;;;;;;;32.87;20.17;99267.34;1581249;89;21241;-69
2022/09/01 10:32:22;;;;;;;;;;;;;;;31.88;20.92;99268.44;1581581;89;20131;-66
2022/09/01 10:34:48;;;;;;;;;;;;;;;30.78;21.91;99269.91;1585131;89;20127;-68
2022/09/01 10:37:14;;;;;;;;;;;;;;;29.93;22.68;99271.02;1580923;89;20433;-68
2022/09/01 10:40:14;;;;;;;;;;;;;;;29.21;23.71;99273.26;1544445;89;20149;-66
2022/09/01 10:42:42;;;;;;;;;;;;;;;28.73;24.49;99277.20;1583366;89;21178;-65
2022/09/01 10:45:18;;;;;;;;;;;;;;;28.23;25.56;99285.42;1580924;89;20099;-66
2022/09/01 10:47:44;;;;;;;;;;;;;;;27.76;26.22;99290.77;1580784;89;20191;-66
2022/09/01 10:50:27;;;;;;;;;;;;;;;27.29;27.07;99299.56;1584328;89;20762;-67
2022/09/01 10:53:02;;;;;;;;;;;;;;;26.88;27.93;99295.69;1580948;89;20154;-65
2022/09/01 10:55:41;;;;;;;;;;;;;;;26.46;28.60;99296.68;1583607;89;22022;-65
2022/09/01 10:58:27;;;;;;;;;;;;;;;26.13;29.27;99300.02;1585116;89;20121;-63
2022/09/01 11:00:53;;;;;;;;;;;;;;;25.75;29.99;99302.22;1534107;92;20247;-66
2022/09/01 11:03:32;;;;;;;;;;;;;;;25.39;30.93;99297.83;1564825;90;20160;-66
2022/09/01 11:06:03;;;;;;;;;;;;;;;25.18;31.66;99293.43;1560520;90;20099;-66
2022/09/01 11:08:34;;;;;;;;;;;;;;;24.98;31.80;99291.47;1558592;90;21175;-66
2022/09/01 11:11:24;;;;;;;;;;;;;;;24.78;32.18;99292.77;1558306;90;20124;-68
2022/09/01 11:14:02;;;;;;;;;;;;;;;24.63;32.64;99291.33;1580499;90;20498;-65
2022/09/01 11:16:31;;;;;;;;;;;;;;;24.41;33.08;99285.23;1580397;89;20155;-68
2022/09/01 11:19:33;;;;;;;;;;;;;;;24.20;33.56;99284.84;1620886;87;20441;-69
2022/09/01 11:22:33;;;;;;;;;;;;;;;24.06;33.95;99286.37;1622262;87;21187;-64
2022/09/01 11:25:09;;;;;;;;;;;;;;;23.92;34.42;99285.47;1623284;87;20107;-66
2022/09/01 11:27:51;;;;;;;;;;;;;;;23.86;34.39;99289.75;1618824;87;20107;-65
2022/09/01 11:30:19;;;;;;;;;;;;;;;23.81;34.34;99289.19;1621261;87;20131;-66
2022/09/01 11:32:49;;;;;;;;;;;;;;;23.82;34.66;99290.00;1618445;86;20246;-69
2022/09/01 11:35:18;;;;;;;;;;;;;;;23.90;34.52;99282.73;1616700;86;21162;-66
2022/09/01 11:37:48;;;;;;;;;;;;;;;24.02;34.45;99281.16;1619522;86;20143;-67
2022/09/01 11:40:21;;;;;;;;;;;;;;;24.21;34.29;99266.92;1614271;86;20184;-67
2022/09/01 11:42:48;;;;;;;;;;;;;;;24.41;33.82;99259.41;1617671;86;20108;-66
2022/09/01 11:45:23;;;;;;;;;;;;;;;24.54;33.56;99263.81;1617567;86;20181;-67
2022/09/01 11:47:53;;;;;;;;;;;;;;;24.63;33.16;99260.59;1619213;86;21166;-66
2022/09/01 11:50:22;;;;;;;;;;;;;;;24.65;33.07;99255.69;1616435;86;20172;-66
2022/09/01 11:53:03;;;;;;;;;;;;;;;24.66;32.35;99250.54;1617325;86;20104;-66
2022/09/01 11:55:37;;;;;;;;;;;;;;;24.58;32.22;99252.67;1616590;86;20540;-66
2022/09/01 11:58:03;;;;;;;;;;;;;;;24.65;31.80;99244.28;1616424;86;20524;-69
2022/09/01 12:00:35;;;;;;;;;;;;;;;24.76;31.47;99241.88;1619793;86;21124;-66
2022/09/01 12:03:01;;;;;;;;;;;;;;;24.78;31.04;99245.16;1615913;86;20092;-67
2022/09/01 12:05:32;;;;;;;;;;;;;;;24.79;31.40;99240.55;1617996;86;20111;-66
2022/09/01 12:08:02;;;;;;;;;;;;;;;24.76;31.39;99233.71;1617583;86;20430;-65
2022/09/01 12:10:35;;;;;;;;;;;;;;;24.77;31.57;99234.53;1618437;86;20439;-66
2022/09/01 12:13:10;;;;;;;;;;;;;;;24.78;32.05;99228.84;1616420;86;21160;-66
2022/09/01 12:15:41;;;;;;;;;;;;;;;24.77;31.96;99231.81;1618545;86;20171;-68
2022/09/01 12:18:13;;;;;;;;;;;;;;;24.74;32.05;99227.70;1619236;86;20143;-69
2022/09/01 12:20:40;;;;;;;;;;;;;;;24.78;31.91;99223.91;1616987;86;20433;-68
2022/09/01 12:23:32;;;;;;;;;;;;;;;24.82;32.00;99222.34;1617467;86;20175;-65
2022/09/01 12:26:03;;;;;;;;;;;;;;;24.90;32.26;99218.52;1615699;86;21197;-68
2022/09/01 12:28:31;;;;;;;;;;;;;;;25.05;32.14;99219.11;1617711;86;20116;-68
2022/09/01 12:31:03;;;;;;;;;;;;;;;25.08;31.97;99215.85;1615880;86;20140;-66
2022/09/01 12:33:29;;;;;;;;;;;;;;;25.16;32.18;99216.11;1589614;86;20099;-69
2022/09/01 12:36:19;;;;;;;;;;;;;;;25.28;32.19;99214.50;1616966;86;20108;-67
2022/09/01 12:38:45;;;;;;;;;;;;;;;25.32;32.00;99207.41;1619884;86;21158;-65
2022/09/01 12:41:33;;;;;;;;;;;;;;;25.30;32.08;99206.88;1615886;86;20145;-65
2022/09/01 12:44:39;;;;;;;;;;;;;;;25.30;32.16;99204.14;1617861;86;20123;-65
2022/09/01 12:47:12;;;;;;;;;;;;;;;25.44;32.38;99213.41;1621017;86;20161;-68
2022/09/01 12:49:40;;;;;;;;;;;;;;;25.61;32.10;99220.77;1617773;86;20152;-66
2022/09/01 12:52:24;;;;;;;;;;;;;;;25.68;31.66;99225.39;1617696;86;21093;-66
2022/09/01 12:54:59;;;;;;;;;;;;;;;25.63;31.34;99229.48;1615381;86;20103;-65
2022/09/01 12:57:33;;;;;;;;;;;;;;;25.44;31.64;99231.66;1618582;86;20080;-66
2022/09/01 13:00:16;;;;;;;;;;;;;;;25.22;31.83;99236.53;1618266;86;20430;-69
2022/09/01 13:02:45;;;;;;;;;;;;;;;24.96;32.23;99240.59;1616790;86;20148;-67
2022/09/01 13:05:26;;;;;;;;;;;;;;;24.78;32.36;99244.31;1617494;86;20572;-67
2022/09/01 13:07:55;;;;;;;;;;;;;;;24.61;32.63;99243.73;1610220;87;20140;-69
2022/09/01 13:10:24;;;;;;;;;;;;;;;24.53;32.89;99243.13;1617120;86;20092;-65
2022/09/01 13:12:50;;;;;;;;;;;;;;;24.52;32.95;99243.41;1617187;86;20128;-67